sensor_id;sensor_type;location;lat;lon;timestamp;P1;durP1;ratioP1;P2;durP2;ratioP2
8092;SDS011;4089;52.420;13.334;2023-09-19T00:00:41;30.23;;;2.43;;
8092;SDS011;4089;52.420;13.334;2023-09-19T00:03:09;29.97;;;2.93;;
8092;SDS011;4089;52.420;13.334;2023-09-19T00:05:39;33.13;;;3.23;;
8092;SDS011;4089;52.420;13.334;2023-09-19T00:08:06;30.60;;;3.40;;
8092;SDS011;4089;52.420;13.334;2023-09-19T00:10:33;28.87;;;2.60;;
8092;SDS011;4089;52.420;13.334;2023-09-19T00:13:04;34.77;;;2.93;;
8092;SDS011;4089;52.420;13.334;2023-09-19T00:15:38;29.93;;;2.60;;
8092;SDS011;4089;52.420;13.334;2023-09-19T00:18:07;32.50;;;2.87;;
8092;SDS011;4089;52.420;13.334;2023-09-19T00:20:35;32.83;;;3.00;;
8092;SDS011;4089;52.420;13.334;2023-09-19T00:23:03;35.23;;;3.10;;
8092;SDS011;4089;52.420;13.334;2023-09-19T00:25:31;33.57;;;2.90;;
8092;SDS011;4089;52.420;13.334;2023-09-19T00:28:04;31.70;;;2.60;;
8092;SDS011;4089;52.420;13.334;2023-09-19T00:30:34;29.70;;;2.30;;
8092;SDS011;4089;52.420;13.334;2023-09-19T00:33:01;29.97;;;2.63;;
8092;SDS011;4089;52.420;13.334;2023-09-19T00:35:32;33.43;;;2.30;;
8092;SDS011;4089;52.420;13.334;2023-09-19T00:37:59;29.90;;;2.90;;
8092;SDS011;4089;52.420;13.334;2023-09-19T00:40:26;30.60;;;2.40;;
8092;SDS011;4089;52.420;13.334;2023-09-19T00:42:53;32.43;;;2.47;;
8092;SDS011;4089;52.420;13.334;2023-09-19T00:45:26;29.37;;;2.50;;
8092;SDS011;4089;52.420;13.334;2023-09-19T00:47:55;30.33;;;2.97;;
8092;SDS011;4089;52.420;13.334;2023-09-19T00:50:24;34.53;;;3.30;;
8092;SDS011;4089;52.420;13.334;2023-09-19T00:52:55;29.83;;;2.43;;
8092;SDS011;4089;52.420;13.334;2023-09-19T00:55:23;33.20;;;2.63;;
8092;SDS011;4089;52.420;13.334;2023-09-19T00:57:51;29.93;;;2.93;;
8092;SDS011;4089;52.420;13.334;2023-09-19T01:00:19;31.60;;;2.60;;
8092;SDS011;4089;52.420;13.334;2023-09-19T01:02:47;29.40;;;2.50;;
8092;SDS011;4089;52.420;13.334;2023-09-19T01:05:15;34.50;;;2.70;;
8092;SDS011;4089;52.420;13.334;2023-09-19T01:07:42;35.03;;;3.07;;
8092;SDS011;4089;52.420;13.334;2023-09-19T01:10:17;30.17;;;2.67;;
8092;SDS011;4089;52.420;13.334;2023-09-19T01:13:04;35.77;;;2.67;;
8092;SDS011;4089;52.420;13.334;2023-09-19T01:15:49;36.33;;;2.90;;
8092;SDS011;4089;52.420;13.334;2023-09-19T01:29:45;31.43;;;2.77;;
8092;SDS011;4089;52.420;13.334;2023-09-19T01:32:18;29.10;;;2.40;;
8092;SDS011;4089;52.420;13.334;2023-09-19T01:37:17;30.50;;;3.00;;
8092;SDS011;4089;52.420;13.334;2023-09-19T01:39:47;32.30;;;3.17;;
8092;SDS011;4089;52.420;13.334;2023-09-19T01:42:26;30.07;;;2.80;;
8092;SDS011;4089;52.420;13.334;2023-09-19T01:45:11;31.57;;;2.70;;
8092;SDS011;4089;52.420;13.334;2023-09-19T01:47:46;31.13;;;2.30;;
8092;SDS011;4089;52.420;13.334;2023-09-19T01:50:30;35.90;;;2.33;;
8092;SDS011;4089;52.420;13.334;2023-09-19T01:53:23;28.57;;;2.63;;
8092;SDS011;4089;52.420;13.334;2023-09-19T01:55:57;29.10;;;3.10;;
8092;SDS011;4089;52.420;13.334;2023-09-19T01:58:33;31.10;;;2.07;;
8092;SDS011;4089;52.420;13.334;2023-09-19T02:01:22;28.40;;;2.40;;
8092;SDS011;4089;52.420;13.334;2023-09-19T02:03:50;27.90;;;2.20;;
8092;SDS011;4089;52.420;13.334;2023-09-19T02:06:18;32.30;;;2.53;;
8092;SDS011;4089;52.420;13.334;2023-09-19T02:08:47;30.10;;;2.50;;
8092;SDS011;4089;52.420;13.334;2023-09-19T02:14:08;30.10;;;2.60;;
8092;SDS011;4089;52.420;13.334;2023-09-19T02:16:35;30.47;;;2.67;;
8092;SDS011;4089;52.420;13.334;2023-09-19T02:19:02;32.33;;;2.30;;
8092;SDS011;4089;52.420;13.334;2023-09-19T02:21:32;30.03;;;2.40;;
8092;SDS011;4089;52.420;13.334;2023-09-19T02:24:00;28.50;;;2.60;;
8092;SDS011;4089;52.420;13.334;2023-09-19T02:26:26;28.60;;;2.20;;
8092;SDS011;4089;52.420;13.334;2023-09-19T02:28:53;31.90;;;2.53;;
8092;SDS011;4089;52.420;13.334;2023-09-19T02:31:20;28.57;;;2.50;;
8092;SDS011;4089;52.420;13.334;2023-09-19T02:33:47;28.30;;;2.50;;
8092;SDS011;4089;52.420;13.334;2023-09-19T02:36:14;29.30;;;2.73;;
8092;SDS011;4089;52.420;13.334;2023-09-19T02:38:43;28.80;;;2.43;;
8092;SDS011;4089;52.420;13.334;2023-09-19T02:41:10;31.60;;;2.90;;
8092;SDS011;4089;52.420;13.334;2023-09-19T02:43:38;31.70;;;2.57;;
8092;SDS011;4089;52.420;13.334;2023-09-19T02:46:05;27.63;;;2.63;;
8092;SDS011;4089;52.420;13.334;2023-09-19T02:48:33;30.23;;;2.50;;
8092;SDS011;4089;52.420;13.334;2023-09-19T02:51:02;32.03;;;2.50;;
8092;SDS011;4089;52.420;13.334;2023-09-19T02:53:31;31.70;;;2.40;;
8092;SDS011;4089;52.420;13.334;2023-09-19T02:55:58;28.77;;;2.30;;
8092;SDS011;4089;52.420;13.334;2023-09-19T02:58:25;30.60;;;2.53;;
8092;SDS011;4089;52.420;13.334;2023-09-19T03:00:54;35.20;;;2.43;;
8092;SDS011;4089;52.420;13.334;2023-09-19T03:03:21;33.10;;;2.70;;
8092;SDS011;4089;52.420;13.334;2023-09-19T03:05:49;27.07;;;2.03;;
8092;SDS011;4089;52.420;13.334;2023-09-19T03:08:20;34.30;;;2.20;;
8092;SDS011;4089;52.420;13.334;2023-09-19T03:10:48;32.33;;;2.33;;
8092;SDS011;4089;52.420;13.334;2023-09-19T03:13:15;28.73;;;2.63;;
8092;SDS011;4089;52.420;13.334;2023-09-19T03:15:42;28.97;;;2.40;;
8092;SDS011;4089;52.420;13.334;2023-09-19T03:18:17;28.80;;;2.43;;
8092;SDS011;4089;52.420;13.334;2023-09-19T03:20:44;26.60;;;2.20;;
8092;SDS011;4089;52.420;13.334;2023-09-19T03:23:21;28.67;;;2.07;;
8092;SDS011;4089;52.420;13.334;2023-09-19T03:25:48;31.43;;;2.53;;
8092;SDS011;4089;52.420;13.334;2023-09-19T03:28:15;30.00;;;2.30;;
8092;SDS011;4089;52.420;13.334;2023-09-19T03:30:42;31.10;;;2.50;;
8092;SDS011;4089;52.420;13.334;2023-09-19T03:33:09;27.60;;;2.27;;
8092;SDS011;4089;52.420;13.334;2023-09-19T03:35:39;25.40;;;1.93;;
8092;SDS011;4089;52.420;13.334;2023-09-19T03:38:06;30.37;;;2.40;;
8092;SDS011;4089;52.420;13.334;2023-09-19T03:40:33;28.57;;;2.10;;
8092;SDS011;4089;52.420;13.334;2023-09-19T03:43:00;33.10;;;2.20;;
8092;SDS011;4089;52.420;13.334;2023-09-19T03:45:27;29.37;;;2.80;;
8092;SDS011;4089;52.420;13.334;2023-09-19T03:47:54;25.40;;;1.90;;
8092;SDS011;4089;52.420;13.334;2023-09-19T03:50:21;29.33;;;2.37;;
8092;SDS011;4089;52.420;13.334;2023-09-19T03:52:47;27.00;;;2.23;;
8092;SDS011;4089;52.420;13.334;2023-09-19T03:55:14;28.23;;;2.10;;
8092;SDS011;4089;52.420;13.334;2023-09-19T03:57:41;29.50;;;2.40;;
8092;SDS011;4089;52.420;13.334;2023-09-19T04:00:08;25.13;;;1.77;;
8092;SDS011;4089;52.420;13.334;2023-09-19T04:02:38;26.40;;;1.97;;
8092;SDS011;4089;52.420;13.334;2023-09-19T04:05:06;24.47;;;1.77;;
8092;SDS011;4089;52.420;13.334;2023-09-19T04:07:33;24.40;;;1.67;;
8092;SDS011;4089;52.420;13.334;2023-09-19T04:10:00;26.03;;;1.77;;
8092;SDS011;4089;52.420;13.334;2023-09-19T04:12:28;24.77;;;2.03;;
8092;SDS011;4089;52.420;13.334;2023-09-19T04:14:55;26.03;;;2.10;;
8092;SDS011;4089;52.420;13.334;2023-09-19T04:17:22;35.00;;;1.97;;
8092;SDS011;4089;52.420;13.334;2023-09-19T04:19:50;30.50;;;2.50;;
8092;SDS011;4089;52.420;13.334;2023-09-19T04:22:17;26.90;;;2.30;;
8092;SDS011;4089;52.420;13.334;2023-09-19T04:24:43;25.77;;;2.20;;
8092;SDS011;4089;52.420;13.334;2023-09-19T04:27:10;25.10;;;1.97;;
8092;SDS011;4089;52.420;13.334;2023-09-19T04:29:40;25.70;;;2.37;;
8092;SDS011;4089;52.420;13.334;2023-09-19T04:32:10;28.37;;;2.63;;
8092;SDS011;4089;52.420;13.334;2023-09-19T04:34:39;26.67;;;2.23;;
8092;SDS011;4089;52.420;13.334;2023-09-19T04:37:06;28.07;;;2.03;;
8092;SDS011;4089;52.420;13.334;2023-09-19T04:39:33;25.87;;;2.07;;
8092;SDS011;4089;52.420;13.334;2023-09-19T04:42:00;28.37;;;2.10;;
8092;SDS011;4089;52.420;13.334;2023-09-19T04:44:27;26.63;;;1.97;;
8092;SDS011;4089;52.420;13.334;2023-09-19T04:46:54;25.43;;;1.90;;
8092;SDS011;4089;52.420;13.334;2023-09-19T04:49:21;26.10;;;1.90;;
8092;SDS011;4089;52.420;13.334;2023-09-19T04:51:48;26.47;;;1.87;;
8092;SDS011;4089;52.420;13.334;2023-09-19T04:54:14;25.00;;;1.67;;
8092;SDS011;4089;52.420;13.334;2023-09-19T04:56:42;24.10;;;1.60;;
8092;SDS011;4089;52.420;13.334;2023-09-19T04:59:09;28.40;;;1.63;;
8092;SDS011;4089;52.420;13.334;2023-09-19T05:01:37;26.37;;;1.63;;
8092;SDS011;4089;52.420;13.334;2023-09-19T05:04:04;26.63;;;1.97;;
8092;SDS011;4089;52.420;13.334;2023-09-19T05:06:32;23.73;;;1.50;;
8092;SDS011;4089;52.420;13.334;2023-09-19T05:09:02;24.00;;;1.43;;
8092;SDS011;4089;52.420;13.334;2023-09-19T05:11:31;23.77;;;1.50;;
8092;SDS011;4089;52.420;13.334;2023-09-19T05:13:59;30.10;;;2.10;;
8092;SDS011;4089;52.420;13.334;2023-09-19T05:16:29;23.30;;;1.43;;
8092;SDS011;4089;52.420;13.334;2023-09-19T05:19:01;23.57;;;1.57;;
8092;SDS011;4089;52.420;13.334;2023-09-19T05:21:28;24.80;;;1.63;;
8092;SDS011;4089;52.420;13.334;2023-09-19T05:23:56;25.23;;;1.73;;
8092;SDS011;4089;52.420;13.334;2023-09-19T05:26:23;25.30;;;1.47;;
8092;SDS011;4089;52.420;13.334;2023-09-19T05:28:49;26.03;;;1.97;;
8092;SDS011;4089;52.420;13.334;2023-09-19T05:31:16;26.73;;;1.60;;
8092;SDS011;4089;52.420;13.334;2023-09-19T05:33:43;26.20;;;1.73;;
8092;SDS011;4089;52.420;13.334;2023-09-19T05:36:10;25.93;;;1.93;;
8092;SDS011;4089;52.420;13.334;2023-09-19T05:38:38;28.03;;;1.90;;
8092;SDS011;4089;52.420;13.334;2023-09-19T05:41:07;24.90;;;2.23;;
8092;SDS011;4089;52.420;13.334;2023-09-19T05:43:36;26.03;;;1.80;;
8092;SDS011;4089;52.420;13.334;2023-09-19T05:46:04;25.47;;;1.90;;
8092;SDS011;4089;52.420;13.334;2023-09-19T05:48:31;24.70;;;2.20;;
8092;SDS011;4089;52.420;13.334;2023-09-19T05:50:57;27.57;;;2.07;;
8092;SDS011;4089;52.420;13.334;2023-09-19T05:53:24;26.37;;;1.83;;
8092;SDS011;4089;52.420;13.334;2023-09-19T05:55:51;26.23;;;2.10;;
8092;SDS011;4089;52.420;13.334;2023-09-19T05:58:20;25.90;;;1.80;;
8092;SDS011;4089;52.420;13.334;2023-09-19T06:00:47;28.87;;;2.20;;
8092;SDS011;4089;52.420;13.334;2023-09-19T06:03:15;25.27;;;1.90;;
8092;SDS011;4089;52.420;13.334;2023-09-19T06:05:43;26.20;;;1.90;;
8092;SDS011;4089;52.420;13.334;2023-09-19T06:08:12;24.83;;;1.80;;
8092;SDS011;4089;52.420;13.334;2023-09-19T06:10:39;27.00;;;2.17;;
8092;SDS011;4089;52.420;13.334;2023-09-19T06:13:06;25.83;;;1.67;;
8092;SDS011;4089;52.420;13.334;2023-09-19T06:15:36;26.17;;;2.20;;
8092;SDS011;4089;52.420;13.334;2023-09-19T06:18:03;27.43;;;2.43;;
8092;SDS011;4089;52.420;13.334;2023-09-19T06:20:31;25.27;;;2.13;;
8092;SDS011;4089;52.420;13.334;2023-09-19T06:22:59;23.30;;;1.60;;
8092;SDS011;4089;52.420;13.334;2023-09-19T06:25:28;28.07;;;2.10;;
8092;SDS011;4089;52.420;13.334;2023-09-19T06:27:55;23.90;;;1.87;;
8092;SDS011;4089;52.420;13.334;2023-09-19T06:30:23;24.57;;;1.77;;
8092;SDS011;4089;52.420;13.334;2023-09-19T06:32:55;26.00;;;2.10;;
8092;SDS011;4089;52.420;13.334;2023-09-19T06:35:23;28.63;;;2.07;;
8092;SDS011;4089;52.420;13.334;2023-09-19T06:37:52;26.43;;;1.90;;
8092;SDS011;4089;52.420;13.334;2023-09-19T06:40:19;24.60;;;1.87;;
8092;SDS011;4089;52.420;13.334;2023-09-19T06:42:47;29.00;;;2.30;;
8092;SDS011;4089;52.420;13.334;2023-09-19T06:45:19;30.17;;;2.47;;
8092;SDS011;4089;52.420;13.334;2023-09-19T06:47:49;27.07;;;2.50;;
8092;SDS011;4089;52.420;13.334;2023-09-19T06:50:18;25.27;;;2.07;;
8092;SDS011;4089;52.420;13.334;2023-09-19T06:52:46;24.30;;;1.93;;
8092;SDS011;4089;52.420;13.334;2023-09-19T06:55:17;25.03;;;2.10;;
8092;SDS011;4089;52.420;13.334;2023-09-19T06:57:46;27.80;;;1.87;;
8092;SDS011;4089;52.420;13.334;2023-09-19T07:00:15;26.30;;;2.13;;
8092;SDS011;4089;52.420;13.334;2023-09-19T07:02:45;25.80;;;1.83;;
8092;SDS011;4089;52.420;13.334;2023-09-19T07:05:20;26.50;;;2.47;;
8092;SDS011;4089;52.420;13.334;2023-09-19T07:07:48;28.47;;;2.30;;
8092;SDS011;4089;52.420;13.334;2023-09-19T07:10:15;26.60;;;1.90;;
8092;SDS011;4089;52.420;13.334;2023-09-19T07:12:44;26.70;;;2.33;;
8092;SDS011;4089;52.420;13.334;2023-09-19T07:15:11;26.80;;;2.30;;
8092;SDS011;4089;52.420;13.334;2023-09-19T07:17:38;28.07;;;2.03;;
8092;SDS011;4089;52.420;13.334;2023-09-19T07:20:05;26.00;;;2.00;;
8092;SDS011;4089;52.420;13.334;2023-09-19T07:22:34;25.77;;;2.43;;
8092;SDS011;4089;52.420;13.334;2023-09-19T07:25:02;29.60;;;2.60;;
8092;SDS011;4089;52.420;13.334;2023-09-19T07:27:29;25.90;;;2.50;;
8092;SDS011;4089;52.420;13.334;2023-09-19T07:29:56;31.00;;;3.03;;
8092;SDS011;4089;52.420;13.334;2023-09-19T07:32:23;26.40;;;2.70;;
8092;SDS011;4089;52.420;13.334;2023-09-19T07:34:50;26.77;;;2.60;;
8092;SDS011;4089;52.420;13.334;2023-09-19T07:37:17;25.70;;;2.70;;
8092;SDS011;4089;52.420;13.334;2023-09-19T07:39:44;26.80;;;2.80;;
8092;SDS011;4089;52.420;13.334;2023-09-19T07:42:11;29.23;;;2.93;;
8092;SDS011;4089;52.420;13.334;2023-09-19T07:44:44;27.77;;;2.33;;
8092;SDS011;4089;52.420;13.334;2023-09-19T07:47:13;29.00;;;2.50;;
8092;SDS011;4089;52.420;13.334;2023-09-19T07:49:41;32.67;;;3.87;;
8092;SDS011;4089;52.420;13.334;2023-09-19T07:52:09;26.00;;;2.57;;
8092;SDS011;4089;52.420;13.334;2023-09-19T07:54:36;28.50;;;2.50;;
8092;SDS011;4089;52.420;13.334;2023-09-19T07:57:05;32.10;;;2.87;;
8092;SDS011;4089;52.420;13.334;2023-09-19T07:59:31;35.07;;;2.80;;
8092;SDS011;4089;52.420;13.334;2023-09-19T08:01:59;30.53;;;2.60;;
8092;SDS011;4089;52.420;13.334;2023-09-19T08:04:27;29.60;;;2.63;;
8092;SDS011;4089;52.420;13.334;2023-09-19T08:06:55;28.00;;;2.50;;
8092;SDS011;4089;52.420;13.334;2023-09-19T08:09:22;29.03;;;2.80;;
8092;SDS011;4089;52.420;13.334;2023-09-19T08:11:51;30.50;;;2.00;;
8092;SDS011;4089;52.420;13.334;2023-09-19T08:14:18;31.27;;;2.27;;
8092;SDS011;4089;52.420;13.334;2023-09-19T08:16:45;27.57;;;1.97;;
8092;SDS011;4089;52.420;13.334;2023-09-19T08:19:12;31.10;;;2.70;;
8092;SDS011;4089;52.420;13.334;2023-09-19T08:21:38;27.17;;;2.47;;
8092;SDS011;4089;52.420;13.334;2023-09-19T08:24:05;30.10;;;2.83;;
8092;SDS011;4089;52.420;13.334;2023-09-19T08:26:32;32.20;;;3.00;;
8092;SDS011;4089;52.420;13.334;2023-09-19T08:28:59;29.30;;;3.20;;
8092;SDS011;4089;52.420;13.334;2023-09-19T08:31:32;28.97;;;2.87;;
8092;SDS011;4089;52.420;13.334;2023-09-19T08:34:00;37.17;;;2.87;;
8092;SDS011;4089;52.420;13.334;2023-09-19T08:36:27;28.90;;;3.20;;
8092;SDS011;4089;52.420;13.334;2023-09-19T08:38:53;33.00;;;2.97;;
8092;SDS011;4089;52.420;13.334;2023-09-19T08:41:20;32.43;;;3.17;;
8092;SDS011;4089;52.420;13.334;2023-09-19T08:43:47;30.30;;;3.00;;
8092;SDS011;4089;52.420;13.334;2023-09-19T08:46:15;27.30;;;2.70;;
8092;SDS011;4089;52.420;13.334;2023-09-19T08:48:48;27.90;;;2.40;;
8092;SDS011;4089;52.420;13.334;2023-09-19T08:54:17;29.10;;;2.67;;
8092;SDS011;4089;52.420;13.334;2023-09-19T08:56:59;32.00;;;3.20;;
8092;SDS011;4089;52.420;13.334;2023-09-19T08:59:34;28.53;;;2.90;;
8092;SDS011;4089;52.420;13.334;2023-09-19T09:02:12;28.27;;;2.60;;
8092;SDS011;4089;52.420;13.334;2023-09-19T09:04:43;28.30;;;2.60;;
8092;SDS011;4089;52.420;13.334;2023-09-19T09:07:12;32.60;;;3.20;;
8092;SDS011;4089;52.420;13.334;2023-09-19T09:09:39;34.43;;;3.00;;
8092;SDS011;4089;52.420;13.334;2023-09-19T09:12:13;29.83;;;2.80;;
8092;SDS011;4089;52.420;13.334;2023-09-19T09:14:45;28.23;;;3.03;;
8092;SDS011;4089;52.420;13.334;2023-09-19T09:17:16;29.33;;;3.00;;
8092;SDS011;4089;52.420;13.334;2023-09-19T09:19:46;27.20;;;2.47;;
8092;SDS011;4089;52.420;13.334;2023-09-19T09:22:14;29.93;;;3.60;;
8092;SDS011;4089;52.420;13.334;2023-09-19T09:24:55;29.17;;;3.30;;
8092;SDS011;4089;52.420;13.334;2023-09-19T09:27:27;30.40;;;3.20;;
8092;SDS011;4089;52.420;13.334;2023-09-19T09:29:54;30.23;;;3.10;;
8092;SDS011;4089;52.420;13.334;2023-09-19T09:32:28;28.90;;;3.13;;
8092;SDS011;4089;52.420;13.334;2023-09-19T09:35:00;34.97;;;3.43;;
8092;SDS011;4089;52.420;13.334;2023-09-19T09:37:28;32.40;;;3.73;;
8092;SDS011;4089;52.420;13.334;2023-09-19T09:39:58;30.80;;;2.70;;
8092;SDS011;4089;52.420;13.334;2023-09-19T09:42:45;31.43;;;2.97;;
8092;SDS011;4089;52.420;13.334;2023-09-19T09:45:22;30.67;;;3.57;;
8092;SDS011;4089;52.420;13.334;2023-09-19T09:47:59;35.07;;;3.90;;
8092;SDS011;4089;52.420;13.334;2023-09-19T09:50:31;30.47;;;2.90;;
8092;SDS011;4089;52.420;13.334;2023-09-19T09:53:20;32.70;;;2.77;;
8092;SDS011;4089;52.420;13.334;2023-09-19T09:56:00;30.90;;;2.90;;
8092;SDS011;4089;52.420;13.334;2023-09-19T09:58:28;40.63;;;3.70;;
8092;SDS011;4089;52.420;13.334;2023-09-19T10:00:56;30.67;;;3.60;;
8092;SDS011;4089;52.420;13.334;2023-09-19T10:06:27;31.07;;;5.10;;
8092;SDS011;4089;52.420;13.334;2023-09-19T10:09:14;30.00;;;2.50;;
8092;SDS011;4089;52.420;13.334;2023-09-19T10:11:47;29.30;;;2.93;;
8092;SDS011;4089;52.420;13.334;2023-09-19T10:14:25;28.07;;;2.77;;
8092;SDS011;4089;52.420;13.334;2023-09-19T10:16:59;33.30;;;3.50;;
8092;SDS011;4089;52.420;13.334;2023-09-19T10:19:33;31.50;;;2.90;;
8092;SDS011;4089;52.420;13.334;2023-09-19T10:22:04;29.90;;;2.77;;
8092;SDS011;4089;52.420;13.334;2023-09-19T10:24:35;29.33;;;2.90;;
8092;SDS011;4089;52.420;13.334;2023-09-19T10:27:22;29.37;;;2.63;;
8092;SDS011;4089;52.420;13.334;2023-09-19T10:29:52;32.20;;;3.30;;
8092;SDS011;4089;52.420;13.334;2023-09-19T10:32:22;36.57;;;3.20;;
8092;SDS011;4089;52.420;13.334;2023-09-19T10:34:50;28.53;;;2.60;;
8092;SDS011;4089;52.420;13.334;2023-09-19T10:37:21;33.23;;;2.47;;
8092;SDS011;4089;52.420;13.334;2023-09-19T10:39:52;29.87;;;2.97;;
8092;SDS011;4089;52.420;13.334;2023-09-19T10:42:22;33.40;;;2.93;;
8092;SDS011;4089;52.420;13.334;2023-09-19T10:44:54;29.93;;;2.47;;
8092;SDS011;4089;52.420;13.334;2023-09-19T10:47:26;35.60;;;3.47;;
8092;SDS011;4089;52.420;13.334;2023-09-19T10:49:53;29.37;;;2.23;;
8092;SDS011;4089;52.420;13.334;2023-09-19T10:52:22;30.00;;;2.67;;
8092;SDS011;4089;52.420;13.334;2023-09-19T10:54:51;33.95;;;2.70;;
8092;SDS011;4089;52.420;13.334;2023-09-19T10:57:22;35.03;;;3.30;;
8092;SDS011;4089;52.420;13.334;2023-09-19T11:00:08;34.00;;;3.03;;
8092;SDS011;4089;52.420;13.334;2023-09-19T11:05:41;32.63;;;3.00;;
8092;SDS011;4089;52.420;13.334;2023-09-19T11:08:08;31.40;;;2.57;;
8092;SDS011;4089;52.420;13.334;2023-09-19T11:10:47;32.93;;;3.30;;
8092;SDS011;4089;52.420;13.334;2023-09-19T11:13:29;32.13;;;3.07;;
8092;SDS011;4089;52.420;13.334;2023-09-19T11:16:04;27.83;;;2.23;;
8092;SDS011;4089;52.420;13.334;2023-09-19T11:24:29;29.20;;;2.60;;
8092;SDS011;4089;52.420;13.334;2023-09-19T11:27:18;29.80;;;2.83;;
8092;SDS011;4089;52.420;13.334;2023-09-19T11:29:46;31.60;;;2.60;;
8092;SDS011;4089;52.420;13.334;2023-09-19T11:32:15;31.97;;;2.67;;
8092;SDS011;4089;52.420;13.334;2023-09-19T11:34:44;30.77;;;2.10;;
8092;SDS011;4089;52.420;13.334;2023-09-19T11:42:47;29.60;;;2.00;;
8092;SDS011;4089;52.420;13.334;2023-09-19T11:48:06;29.93;;;3.00;;
8092;SDS011;4089;52.420;13.334;2023-09-19T11:50:34;30.20;;;2.40;;
8092;SDS011;4089;52.420;13.334;2023-09-19T11:53:05;32.00;;;2.73;;
8092;SDS011;4089;52.420;13.334;2023-09-19T11:55:32;29.23;;;1.90;;
8092;SDS011;4089;52.420;13.334;2023-09-19T11:58:00;32.27;;;2.13;;
8092;SDS011;4089;52.420;13.334;2023-09-19T12:00:28;30.00;;;2.30;;
8092;SDS011;4089;52.420;13.334;2023-09-19T12:02:55;33.70;;;2.90;;
8092;SDS011;4089;52.420;13.334;2023-09-19T12:05:29;28.20;;;2.03;;
8092;SDS011;4089;52.420;13.334;2023-09-19T12:07:57;31.77;;;2.13;;
8092;SDS011;4089;52.420;13.334;2023-09-19T12:10:24;36.07;;;2.03;;
8092;SDS011;4089;52.420;13.334;2023-09-19T12:12:51;29.93;;;2.70;;
8092;SDS011;4089;52.420;13.334;2023-09-19T12:15:23;31.70;;;2.20;;
8092;SDS011;4089;52.420;13.334;2023-09-19T12:17:54;43.23;;;2.20;;
8092;SDS011;4089;52.420;13.334;2023-09-19T12:20:21;28.50;;;1.60;;
8092;SDS011;4089;52.420;13.334;2023-09-19T12:22:49;33.50;;;2.00;;
8092;SDS011;4089;52.420;13.334;2023-09-19T12:25:16;30.93;;;2.20;;
8092;SDS011;4089;52.420;13.334;2023-09-19T12:27:45;32.20;;;1.87;;
8092;SDS011;4089;52.420;13.334;2023-09-19T12:30:13;29.77;;;2.00;;
8092;SDS011;4089;52.420;13.334;2023-09-19T12:32:47;29.97;;;1.70;;
8092;SDS011;4089;52.420;13.334;2023-09-19T12:35:31;30.50;;;2.03;;
8092;SDS011;4089;52.420;13.334;2023-09-19T12:38:02;30.20;;;2.40;;
8092;SDS011;4089;52.420;13.334;2023-09-19T12:40:30;31.43;;;3.20;;
8092;SDS011;4089;52.420;13.334;2023-09-19T12:43:00;28.40;;;2.10;;
8092;SDS011;4089;52.420;13.334;2023-09-19T12:45:29;33.70;;;2.60;;
8092;SDS011;4089;52.420;13.334;2023-09-19T12:50:59;27.93;;;1.70;;
8092;SDS011;4089;52.420;13.334;2023-09-19T12:53:32;32.47;;;2.57;;
8092;SDS011;4089;52.420;13.334;2023-09-19T12:56:10;28.23;;;1.70;;
8092;SDS011;4089;52.420;13.334;2023-09-19T13:01:20;30.70;;;1.47;;
8092;SDS011;4089;52.420;13.334;2023-09-19T13:06:47;34.53;;;1.87;;
8092;SDS011;4089;52.420;13.334;2023-09-19T13:09:22;27.83;;;1.50;;
8092;SDS011;4089;52.420;13.334;2023-09-19T13:12:00;27.00;;;1.40;;
8092;SDS011;4089;52.420;13.334;2023-09-19T13:14:29;28.20;;;2.40;;
8092;SDS011;4089;52.420;13.334;2023-09-19T13:17:06;28.83;;;1.90;;
8092;SDS011;4089;52.420;13.334;2023-09-19T13:19:44;27.60;;;2.10;;
8092;SDS011;4089;52.420;13.334;2023-09-19T13:25:16;29.00;;;1.63;;
8092;SDS011;4089;52.420;13.334;2023-09-19T13:27:52;28.43;;;1.83;;
8092;SDS011;4089;52.420;13.334;2023-09-19T13:30:26;33.03;;;1.90;;
8092;SDS011;4089;52.420;13.334;2023-09-19T13:33:08;28.67;;;1.97;;
8092;SDS011;4089;52.420;13.334;2023-09-19T13:35:38;30.10;;;1.77;;
8092;SDS011;4089;52.420;13.334;2023-09-19T13:38:07;28.73;;;1.87;;
8092;SDS011;4089;52.420;13.334;2023-09-19T13:40:38;33.77;;;1.77;;
8092;SDS011;4089;52.420;13.334;2023-09-19T13:43:08;29.07;;;1.30;;
8092;SDS011;4089;52.420;13.334;2023-09-19T13:45:35;34.00;;;2.23;;
8092;SDS011;4089;52.420;13.334;2023-09-19T13:48:02;30.73;;;1.87;;
8092;SDS011;4089;52.420;13.334;2023-09-19T13:50:30;29.37;;;1.87;;
8092;SDS011;4089;52.420;13.334;2023-09-19T13:52:57;28.97;;;1.93;;
8092;SDS011;4089;52.420;13.334;2023-09-19T13:55:27;27.73;;;1.93;;
8092;SDS011;4089;52.420;13.334;2023-09-19T13:57:54;33.60;;;1.83;;
8092;SDS011;4089;52.420;13.334;2023-09-19T14:00:22;31.27;;;1.90;;
8092;SDS011;4089;52.420;13.334;2023-09-19T14:02:50;31.63;;;1.67;;
8092;SDS011;4089;52.420;13.334;2023-09-19T14:05:18;29.10;;;1.70;;
8092;SDS011;4089;52.420;13.334;2023-09-19T14:07:47;27.33;;;1.80;;
8092;SDS011;4089;52.420;13.334;2023-09-19T14:10:14;29.80;;;2.30;;
8092;SDS011;4089;52.420;13.334;2023-09-19T14:12:42;32.60;;;2.17;;
8092;SDS011;4089;52.420;13.334;2023-09-19T14:15:11;28.83;;;1.93;;
8092;SDS011;4089;52.420;13.334;2023-09-19T14:17:38;27.60;;;1.70;;
8092;SDS011;4089;52.420;13.334;2023-09-19T14:20:08;29.87;;;1.90;;
8092;SDS011;4089;52.420;13.334;2023-09-19T14:22:37;30.63;;;1.97;;
8092;SDS011;4089;52.420;13.334;2023-09-19T14:25:04;31.87;;;2.03;;
8092;SDS011;4089;52.420;13.334;2023-09-19T14:27:32;27.20;;;1.80;;
8092;SDS011;4089;52.420;13.334;2023-09-19T14:29:59;29.03;;;2.00;;
8092;SDS011;4089;52.420;13.334;2023-09-19T14:32:26;30.50;;;2.33;;
8092;SDS011;4089;52.420;13.334;2023-09-19T14:34:53;31.20;;;2.43;;
8092;SDS011;4089;52.420;13.334;2023-09-19T14:37:20;27.60;;;1.97;;
8092;SDS011;4089;52.420;13.334;2023-09-19T14:39:47;27.83;;;1.80;;
8092;SDS011;4089;52.420;13.334;2023-09-19T14:42:14;30.97;;;2.03;;
8092;SDS011;4089;52.420;13.334;2023-09-19T14:44:44;28.23;;;1.77;;
8092;SDS011;4089;52.420;13.334;2023-09-19T14:47:11;31.77;;;1.83;;
8092;SDS011;4089;52.420;13.334;2023-09-19T14:49:40;30.40;;;2.23;;
8092;SDS011;4089;52.420;13.334;2023-09-19T14:52:07;29.97;;;1.93;;
8092;SDS011;4089;52.420;13.334;2023-09-19T14:54:36;32.77;;;2.23;;
8092;SDS011;4089;52.420;13.334;2023-09-19T14:57:08;30.43;;;2.20;;
8092;SDS011;4089;52.420;13.334;2023-09-19T14:59:35;29.80;;;1.90;;
8092;SDS011;4089;52.420;13.334;2023-09-19T15:02:05;28.63;;;1.80;;
8092;SDS011;4089;52.420;13.334;2023-09-19T15:04:33;31.20;;;2.03;;
8092;SDS011;4089;52.420;13.334;2023-09-19T15:07:06;29.73;;;1.97;;
8092;SDS011;4089;52.420;13.334;2023-09-19T15:09:33;33.43;;;2.30;;
8092;SDS011;4089;52.420;13.334;2023-09-19T15:12:00;33.93;;;2.23;;
8092;SDS011;4089;52.420;13.334;2023-09-19T15:14:27;31.43;;;2.10;;
8092;SDS011;4089;52.420;13.334;2023-09-19T15:16:55;31.67;;;1.40;;
8092;SDS011;4089;52.420;13.334;2023-09-19T15:19:23;32.60;;;1.90;;
8092;SDS011;4089;52.420;13.334;2023-09-19T15:21:49;30.40;;;1.83;;
8092;SDS011;4089;52.420;13.334;2023-09-19T15:24:16;30.70;;;2.23;;
8092;SDS011;4089;52.420;13.334;2023-09-19T15:26:44;34.00;;;2.00;;
8092;SDS011;4089;52.420;13.334;2023-09-19T15:29:12;30.93;;;2.33;;
8092;SDS011;4089;52.420;13.334;2023-09-19T15:31:40;29.20;;;2.10;;
8092;SDS011;4089;52.420;13.334;2023-09-19T15:34:07;29.07;;;2.03;;
8092;SDS011;4089;52.420;13.334;2023-09-19T15:36:34;31.43;;;2.20;;
8092;SDS011;4089;52.420;13.334;2023-09-19T15:39:01;36.43;;;2.60;;
8092;SDS011;4089;52.420;13.334;2023-09-19T15:41:33;33.77;;;2.43;;
8092;SDS011;4089;52.420;13.334;2023-09-19T15:44:02;29.53;;;2.10;;
8092;SDS011;4089;52.420;13.334;2023-09-19T15:46:30;32.40;;;2.17;;
8092;SDS011;4089;52.420;13.334;2023-09-19T15:49:01;34.27;;;3.90;;
8092;SDS011;4089;52.420;13.334;2023-09-19T15:51:28;33.47;;;2.30;;
8092;SDS011;4089;52.420;13.334;2023-09-19T15:53:56;36.30;;;2.20;;